THY535 LIML-LTBS
Flight info
| Callsign | THY535 |
|---|---|
| Flight time | N/A |
| Altitude | 37000 |
| Route | LOGDI DCT BEPMA DCT PETAS DCT ANC DCT VAPUP DCT ORAKA DCT AMUGO DCT KONUV DCT RETRA DCT MAVAR DCT TALAS UN130 PIVOS UG802 IMR UN127 KEKIK |
| Aircraft | B738/M-SDE2E3FGHIRWXY/LB1 |
Departure
| Time | 2026-05-04 17:32 |
|---|---|
| Airport | Milano Linate Airport (LIML) |
Arrival
| Time | N/A |
|---|---|
| Airport | Dalaman International Airport (LTBS) |
| Time | Latitude | Longitude | Altitude | Speed | Heading |
|---|---|---|---|---|---|
| 2026-05-04 16:51 | 45.45976 | 9.28101 | 365 ft | 0 kts | 0° |
| 2026-05-04 17:19 | 45.45947 | 9.28101 | 359 ft | 4 kts | 0° |
| 2026-05-04 17:20 | 45.45894 | 9.28102 | 359 ft | 2 kts | 0° |
| 2026-05-04 17:20 | 45.45893 | 9.28102 | 359 ft | 0 kts | 0° |
| 2026-05-04 17:23 | 45.45911 | 9.28096 | 359 ft | 9 kts | 335° |
| 2026-05-04 17:23 | 45.45915 | 9.27990 | 362 ft | 3 kts | 188° |
| 2026-05-04 17:24 | 45.45875 | 9.27986 | 359 ft | 12 kts | 182° |
| 2026-05-04 17:24 | 45.45418 | 9.27979 | 359 ft | 23 kts | 179° |
| 2026-05-04 17:25 | 45.45274 | 9.27896 | 364 ft | 22 kts | 205° |
| 2026-05-04 17:25 | 45.44980 | 9.27893 | 363 ft | 21 kts | 175° |
| 2026-05-04 17:26 | 45.44703 | 9.27954 | 361 ft | 20 kts | 175° |
| 2026-05-04 17:26 | 45.44296 | 9.28004 | 359 ft | 21 kts | 169° |
| 2026-05-04 17:27 | 45.44003 | 9.28029 | 361 ft | 21 kts | 178° |
| 2026-05-04 17:27 | 45.43722 | 9.28059 | 363 ft | 20 kts | 176° |
| 2026-05-04 17:28 | 45.43463 | 9.28059 | 360 ft | 18 kts | 225° |
| 2026-05-04 17:29 | 45.43444 | 9.27979 | 360 ft | 0 kts | 264° |
| 2026-05-04 17:31 | 45.43444 | 9.27971 | 360 ft | 4 kts | 264° |
| 2026-05-04 17:31 | 45.43945 | 9.27766 | 360 ft | 112 kts | 356° |
| 2026-05-04 17:32 | 45.46498 | 9.27540 | 1086 ft | 223 kts | 357° |
| 2026-05-04 17:33 | 45.50944 | 9.28240 | 4766 ft | 210 kts | 22° |
| 2026-05-04 17:33 | 45.52093 | 9.29603 | 5375 ft | 227 kts | 61° |
| 2026-05-04 17:34 | 45.50644 | 9.35695 | 7505 ft | 263 kts | 131° |
| 2026-05-04 17:34 | 45.49492 | 9.37797 | 8501 ft | 273 kts | 128° |
| 2026-05-04 17:35 | 45.46122 | 9.44613 | 10924 ft | 307 kts | 127° |
| 2026-05-04 17:35 | 45.43503 | 9.50102 | 11553 ft | 355 kts | 126° |
| 2026-05-04 17:35 | 45.42105 | 9.53062 | 12260 ft | 364 kts | 126° |
| 2026-05-04 17:36 | 45.40679 | 9.56074 | 13057 ft | 370 kts | 127° |
| 2026-05-04 17:36 | 45.39225 | 9.59133 | 13833 ft | 377 kts | 127° |
| 2026-05-04 17:36 | 45.37666 | 9.62173 | 14506 ft | 382 kts | 135° |
| 2026-05-04 17:36 | 45.35564 | 9.64423 | 15221 ft | 380 kts | 152° |
| 2026-05-04 17:37 | 45.33302 | 9.66325 | 15958 ft | 384 kts | 152° |
| 2026-05-04 17:37 | 45.30990 | 9.68290 | 16621 ft | 390 kts | 152° |
| 2026-05-04 17:37 | 45.28648 | 9.70296 | 17269 ft | 396 kts | 151° |
| 2026-05-04 17:37 | 45.26264 | 9.72349 | 17898 ft | 403 kts | 151° |
| 2026-05-04 17:38 | 45.23852 | 9.74436 | 18560 ft | 408 kts | 151° |
| 2026-05-04 17:38 | 45.21427 | 9.76539 | 19200 ft | 410 kts | 151° |
| 2026-05-04 17:38 | 45.18914 | 9.78718 | 19907 ft | 412 kts | 151° |
| 2026-05-04 17:38 | 45.16529 | 9.80786 | 20553 ft | 414 kts | 151° |
| 2026-05-04 17:39 | 45.11604 | 9.85048 | 21769 ft | 420 kts | 151° |
| 2026-05-04 17:39 | 45.09099 | 9.87212 | 22345 ft | 424 kts | 151° |
| 2026-05-04 17:39 | 45.06572 | 9.89393 | 22909 ft | 427 kts | 151° |
| 2026-05-04 17:40 | 45.04026 | 9.91588 | 23471 ft | 430 kts | 151° |
| 2026-05-04 17:40 | 45.01459 | 9.93798 | 23959 ft | 433 kts | 151° |
| 2026-05-04 17:40 | 44.98874 | 9.96021 | 24398 ft | 437 kts | 151° |
| 2026-05-04 17:40 | 44.96271 | 9.98257 | 24833 ft | 440 kts | 151° |
| 2026-05-04 17:41 | 44.93641 | 10.00516 | 25251 ft | 443 kts | 151° |
| 2026-05-04 17:41 | 44.91001 | 10.02779 | 25647 ft | 447 kts | 151° |
| 2026-05-04 17:41 | 44.88332 | 10.05065 | 26050 ft | 450 kts | 152° |
| 2026-05-04 17:41 | 44.85644 | 10.07365 | 26453 ft | 453 kts | 152° |
| 2026-05-04 17:42 | 44.82947 | 10.09671 | 26845 ft | 455 kts | 152° |
| 2026-05-04 17:42 | 44.80228 | 10.11993 | 27217 ft | 458 kts | 152° |
| 2026-05-04 17:42 | 44.77489 | 10.14330 | 27591 ft | 461 kts | 152° |
| 2026-05-04 17:42 | 44.74739 | 10.16673 | 27953 ft | 464 kts | 151° |
| 2026-05-04 17:43 | 44.72179 | 10.19495 | 28189 ft | 477 kts | 135° |
| 2026-05-04 17:43 | 44.70294 | 10.23383 | 28456 ft | 489 kts | 117° |
| 2026-05-04 17:43 | 44.69100 | 10.27871 | 28824 ft | 492 kts | 110° |
| 2026-05-04 17:43 | 44.68043 | 10.32392 | 29320 ft | 493 kts | 110° |
| 2026-05-04 17:44 | 44.66989 | 10.36972 | 29789 ft | 493 kts | 110° |
| 2026-05-04 17:44 | 44.65925 | 10.41550 | 30252 ft | 493 kts | 110° |
| 2026-05-04 17:44 | 44.64841 | 10.46119 | 30646 ft | 492 kts | 110° |
| 2026-05-04 17:44 | 44.63741 | 10.50676 | 31031 ft | 492 kts | 111° |
| 2026-05-04 17:45 | 44.62631 | 10.55220 | 31410 ft | 492 kts | 111° |
| 2026-05-04 17:45 | 44.61513 | 10.59762 | 31786 ft | 492 kts | 111° |
| 2026-05-04 17:45 | 44.60393 | 10.64303 | 32204 ft | 491 kts | 111° |
| 2026-05-04 17:45 | 44.59279 | 10.68812 | 32665 ft | 489 kts | 111° |
| 2026-05-04 17:46 | 44.58165 | 10.73315 | 33017 ft | 489 kts | 111° |
| 2026-05-04 17:46 | 44.57046 | 10.77830 | 33326 ft | 491 kts | 111° |
| 2026-05-04 17:46 | 44.55923 | 10.82359 | 33697 ft | 491 kts | 111° |
| 2026-05-04 17:46 | 44.54800 | 10.86879 | 34093 ft | 490 kts | 111° |
| 2026-05-04 17:47 | 44.53690 | 10.91339 | 34426 ft | 489 kts | 111° |
| 2026-05-04 17:47 | 44.52566 | 10.95844 | 34716 ft | 490 kts | 111° |
| 2026-05-04 17:47 | 44.51441 | 11.00351 | 35007 ft | 490 kts | 111° |
| 2026-05-04 17:47 | 44.50313 | 11.04858 | 35305 ft | 490 kts | 111° |
| 2026-05-04 17:48 | 44.49156 | 11.09343 | 35619 ft | 489 kts | 114° |
| 2026-05-04 17:48 | 44.47883 | 11.13750 | 35903 ft | 488 kts | 115° |
| 2026-05-04 17:48 | 44.46542 | 11.18120 | 36186 ft | 488 kts | 116° |
| 2026-05-04 17:48 | 44.45181 | 11.22475 | 36499 ft | 487 kts | 116° |
| 2026-05-04 17:49 | 44.43828 | 11.26818 | 36693 ft | 487 kts | 116° |
| 2026-05-04 17:49 | 44.42496 | 11.31132 | 36822 ft | 491 kts | 116° |
| 2026-05-04 17:49 | 44.41146 | 11.35539 | 36975 ft | 493 kts | 115° |
| 2026-05-04 17:49 | 44.39801 | 11.39951 | 37080 ft | 493 kts | 115° |
| 2026-05-04 17:50 | 44.37109 | 11.48773 | 37105 ft | 492 kts | 116° |
| 2026-05-04 17:50 | 44.34390 | 11.57537 | 37111 ft | 490 kts | 118° |
| 2026-05-04 17:51 | 44.31238 | 11.65947 | 37121 ft | 487 kts | 122° |
| 2026-05-04 17:51 | 44.27935 | 11.74195 | 37115 ft | 486 kts | 122° |
| 2026-05-04 17:52 | 44.24664 | 11.82435 | 37095 ft | 485 kts | 121° |
| 2026-05-04 17:52 | 44.21422 | 11.90705 | 37082 ft | 485 kts | 121° |
| 2026-05-04 17:53 | 44.18193 | 11.98961 | 37080 ft | 485 kts | 121° |
| 2026-05-04 17:53 | 44.14979 | 12.07160 | 37080 ft | 485 kts | 121° |
| 2026-05-04 17:54 | 44.11732 | 12.15414 | 37083 ft | 486 kts | 121° |
| 2026-05-04 17:54 | 44.09020 | 12.22283 | 37074 ft | 487 kts | 121° |
| 2026-05-04 17:55 | 44.05748 | 12.30550 | 37086 ft | 488 kts | 121° |
| 2026-05-04 17:55 | 44.02467 | 12.38816 | 37056 ft | 488 kts | 121° |
| 2026-05-04 17:56 | 43.99180 | 12.47074 | 37053 ft | 488 kts | 121° |
| 2026-05-04 17:56 | 43.95890 | 12.55315 | 37051 ft | 488 kts | 121° |
| 2026-05-04 17:57 | 43.92595 | 12.63545 | 37049 ft | 488 kts | 121° |
| 2026-05-04 17:57 | 43.89294 | 12.71763 | 37039 ft | 488 kts | 121° |
| 2026-05-04 17:58 | 43.85989 | 12.79971 | 37060 ft | 488 kts | 121° |
| 2026-05-04 17:58 | 43.82693 | 12.88131 | 37069 ft | 488 kts | 121° |
| 2026-05-04 17:59 | 43.79369 | 12.96338 | 37068 ft | 489 kts | 121° |
| 2026-05-04 18:00 | 43.74364 | 13.08651 | 37072 ft | 490 kts | 121° |
| 2026-05-04 18:00 | 43.71014 | 13.16865 | 37081 ft | 489 kts | 121° |
| 2026-05-04 18:01 | 43.67660 | 13.25062 | 37077 ft | 489 kts | 121° |
| 2026-05-04 18:01 | 43.64307 | 13.33236 | 37075 ft | 489 kts | 121° |
| 2026-05-04 18:02 | 43.59289 | 13.45428 | 37068 ft | 489 kts | 121° |
| 2026-05-04 18:02 | 43.56389 | 13.53905 | 37085 ft | 489 kts | 112° |
| 2026-05-04 18:03 | 43.53884 | 13.62635 | 37078 ft | 489 kts | 112° |
| 2026-05-04 18:03 | 43.51377 | 13.71353 | 37075 ft | 490 kts | 112° |
| 2026-05-04 18:04 | 43.48813 | 13.80034 | 37078 ft | 490 kts | 112° |
| 2026-05-04 18:05 | 43.44909 | 13.93039 | 37088 ft | 490 kts | 112° |
| 2026-05-04 18:05 | 43.42295 | 14.01709 | 37083 ft | 490 kts | 112° |
| 2026-05-04 18:06 | 43.38387 | 14.14627 | 37085 ft | 489 kts | 112° |
| 2026-05-04 18:06 | 43.35765 | 14.23261 | 37093 ft | 489 kts | 112° |
| 2026-05-04 18:07 | 43.33137 | 14.31888 | 37085 ft | 489 kts | 112° |
| 2026-05-04 18:07 | 43.30506 | 14.40492 | 37076 ft | 489 kts | 112° |
| 2026-05-04 18:08 | 43.27870 | 14.49087 | 37088 ft | 488 kts | 112° |
| 2026-05-04 18:08 | 43.25226 | 14.57680 | 37088 ft | 489 kts | 112° |
| 2026-05-04 18:09 | 43.19934 | 14.74791 | 37094 ft | 489 kts | 113° |
| 2026-05-04 18:10 | 43.17267 | 14.83372 | 37088 ft | 490 kts | 113° |
| 2026-05-04 18:10 | 43.14591 | 14.91955 | 37092 ft | 490 kts | 113° |
| 2026-05-04 18:11 | 43.11909 | 15.00532 | 37093 ft | 490 kts | 113° |
| 2026-05-04 18:11 | 43.09220 | 15.09100 | 37089 ft | 490 kts | 113° |
| 2026-05-04 18:12 | 43.06516 | 15.17658 | 37086 ft | 489 kts | 113° |
| 2026-05-04 18:12 | 43.04052 | 15.26317 | 37095 ft | 488 kts | 109° |
| 2026-05-04 18:13 | 43.01878 | 15.35106 | 37094 ft | 488 kts | 108° |
| 2026-05-04 18:14 | 42.98647 | 15.48232 | 37086 ft | 487 kts | 108° |
| 2026-05-04 18:14 | 42.96449 | 15.56967 | 37092 ft | 486 kts | 108° |
| 2026-05-04 18:15 | 42.92028 | 15.74396 | 37089 ft | 485 kts | 108° |
| 2026-05-04 18:16 | 42.89805 | 15.83087 | 37099 ft | 485 kts | 108° |
| 2026-05-04 18:16 | 42.87577 | 15.91767 | 37095 ft | 485 kts | 108° |
| 2026-05-04 18:17 | 42.84221 | 16.04788 | 37101 ft | 485 kts | 108° |
| 2026-05-04 18:18 | 42.80857 | 16.17771 | 37094 ft | 484 kts | 108° |
| 2026-05-04 18:18 | 42.78606 | 16.26419 | 37102 ft | 484 kts | 108° |
| 2026-05-04 18:19 | 42.75224 | 16.39353 | 37116 ft | 483 kts | 108° |
| 2026-05-04 18:19 | 42.72977 | 16.47909 | 37103 ft | 483 kts | 108° |
| 2026-05-04 18:20 | 42.70712 | 16.56500 | 37103 ft | 482 kts | 108° |
| 2026-05-04 18:20 | 42.68444 | 16.65075 | 37109 ft | 481 kts | 108° |
| 2026-05-04 18:21 | 42.66174 | 16.73628 | 37116 ft | 481 kts | 108° |
| 2026-05-04 18:21 | 42.63893 | 16.82191 | 37110 ft | 481 kts | 108° |
| 2026-05-04 18:22 | 42.61612 | 16.90721 | 37115 ft | 481 kts | 108° |
| 2026-05-04 18:22 | 42.59324 | 16.99253 | 37114 ft | 481 kts | 108° |
| 2026-05-04 18:23 | 42.57032 | 17.07773 | 37127 ft | 481 kts | 108° |
| 2026-05-04 18:23 | 42.54765 | 17.16237 | 37113 ft | 480 kts | 105° |
| 2026-05-04 18:24 | 42.53673 | 17.25076 | 37114 ft | 473 kts | 86° |
| 2026-05-04 18:24 | 42.53897 | 17.33970 | 37115 ft | 471 kts | 84° |
| 2026-05-04 18:25 | 42.54128 | 17.42844 | 37130 ft | 471 kts | 85° |
| 2026-05-04 18:25 | 42.54290 | 17.51731 | 37111 ft | 471 kts | 85° |
| 2026-05-04 18:26 | 42.54248 | 17.60619 | 37112 ft | 474 kts | 94° |
| 2026-05-04 18:26 | 42.53173 | 17.69436 | 37119 ft | 475 kts | 98° |
| 2026-05-04 18:27 | 42.51983 | 17.78225 | 37130 ft | 474 kts | 97° |
| 2026-05-04 18:27 | 42.50842 | 17.87032 | 37125 ft | 474 kts | 97° |
| 2026-05-04 18:28 | 42.49734 | 17.95825 | 37131 ft | 473 kts | 97° |
| 2026-05-04 18:28 | 42.48629 | 18.04600 | 37128 ft | 473 kts | 97° |
| 2026-05-04 18:29 | 42.47512 | 18.13390 | 37132 ft | 473 kts | 97° |
| 2026-05-04 18:29 | 42.46387 | 18.22168 | 37133 ft | 473 kts | 97° |
| 2026-05-04 18:30 | 42.44508 | 18.35282 | 37121 ft | 476 kts | 106° |
| 2026-05-04 18:31 | 42.41744 | 18.43449 | 37148 ft | 478 kts | 115° |
| 2026-05-04 18:31 | 42.38736 | 18.51490 | 37128 ft | 479 kts | 115° |
| 2026-05-04 18:32 | 42.35756 | 18.59543 | 37127 ft | 479 kts | 114° |
| 2026-05-04 18:32 | 42.32805 | 18.67614 | 37130 ft | 479 kts | 114° |
| 2026-05-04 18:33 | 42.29859 | 18.75686 | 37116 ft | 479 kts | 114° |
| 2026-05-04 18:33 | 42.26907 | 18.83753 | 37119 ft | 479 kts | 114° |
| 2026-05-04 18:34 | 42.23946 | 18.91818 | 37114 ft | 479 kts | 114° |
| 2026-05-04 18:34 | 42.20979 | 18.99873 | 37102 ft | 480 kts | 114° |
| 2026-05-04 18:35 | 42.18020 | 19.07881 | 37121 ft | 480 kts | 114° |
| 2026-05-04 18:35 | 42.15035 | 19.15941 | 37120 ft | 480 kts | 114° |
| 2026-05-04 18:36 | 42.12044 | 19.23992 | 37103 ft | 480 kts | 114° |
| 2026-05-04 18:36 | 42.09052 | 19.32020 | 37106 ft | 480 kts | 114° |
| 2026-05-04 18:37 | 42.06057 | 19.40036 | 37119 ft | 479 kts | 114° |
| 2026-05-04 18:37 | 42.03064 | 19.48025 | 37130 ft | 478 kts | 114° |
| 2026-05-04 18:38 | 42.00067 | 19.56003 | 37107 ft | 477 kts | 114° |
| 2026-05-04 18:38 | 41.97075 | 19.63944 | 37113 ft | 475 kts | 114° |
| 2026-05-04 18:39 | 41.94587 | 19.70532 | 37128 ft | 475 kts | 115° |
| 2026-05-04 18:39 | 41.91110 | 19.79712 | 37124 ft | 474 kts | 115° |
| 2026-05-04 18:40 | 41.88111 | 19.87607 | 37138 ft | 474 kts | 115° |
| 2026-05-04 18:40 | 41.85616 | 19.94160 | 37135 ft | 474 kts | 115° |
| 2026-05-04 18:41 | 41.82614 | 20.02025 | 37141 ft | 473 kts | 115° |
| 2026-05-04 18:41 | 41.79604 | 20.09886 | 37150 ft | 474 kts | 115° |
| 2026-05-04 18:42 | 41.76587 | 20.17747 | 37157 ft | 475 kts | 115° |
| 2026-05-04 18:42 | 41.73561 | 20.25608 | 37163 ft | 476 kts | 115° |
| 2026-05-04 18:43 | 41.70520 | 20.33487 | 37153 ft | 477 kts | 115° |
| 2026-05-04 18:43 | 41.67465 | 20.41381 | 37146 ft | 477 kts | 115° |
| 2026-05-04 18:44 | 41.64404 | 20.49270 | 37168 ft | 478 kts | 115° |
| 2026-05-04 18:44 | 41.61354 | 20.57108 | 37145 ft | 479 kts | 115° |
| 2026-05-04 18:45 | 41.58275 | 20.65001 | 37138 ft | 479 kts | 115° |
| 2026-05-04 18:45 | 41.55194 | 20.72875 | 37143 ft | 478 kts | 115° |
| 2026-05-04 18:46 | 41.52109 | 20.80740 | 37158 ft | 478 kts | 115° |
| 2026-05-04 18:46 | 41.49018 | 20.88601 | 37133 ft | 478 kts | 115° |
| 2026-05-04 18:47 | 41.45922 | 20.96451 | 37132 ft | 478 kts | 115° |
| 2026-05-04 18:47 | 41.42818 | 21.04301 | 37129 ft | 479 kts | 115° |
| 2026-05-04 18:48 | 41.39705 | 21.12151 | 37131 ft | 480 kts | 115° |
| 2026-05-04 18:48 | 41.36582 | 21.20008 | 37134 ft | 480 kts | 115° |
| 2026-05-04 18:49 | 41.33453 | 21.27859 | 37114 ft | 480 kts | 115° |
| 2026-05-04 18:49 | 41.30317 | 21.35705 | 37109 ft | 480 kts | 115° |
| 2026-05-04 18:50 | 41.27182 | 21.43529 | 37111 ft | 480 kts | 115° |
| 2026-05-04 18:50 | 41.24038 | 21.51352 | 37115 ft | 479 kts | 115° |
| 2026-05-04 18:51 | 41.20894 | 21.59158 | 37112 ft | 479 kts | 115° |
| 2026-05-04 18:51 | 41.17747 | 21.66950 | 37106 ft | 479 kts | 115° |
| 2026-05-04 18:52 | 41.14591 | 21.74746 | 37114 ft | 479 kts | 115° |
| 2026-05-04 18:52 | 41.11431 | 21.82531 | 37126 ft | 479 kts | 115° |
| 2026-05-04 18:53 | 41.08270 | 21.90297 | 37099 ft | 479 kts | 116° |
| 2026-05-04 18:53 | 41.04554 | 21.97627 | 37106 ft | 481 kts | 125° |
| 2026-05-04 18:54 | 41.00445 | 22.04602 | 37116 ft | 480 kts | 126° |
| 2026-05-04 18:54 | 40.96378 | 22.11552 | 37102 ft | 481 kts | 125° |
| 2026-05-04 18:55 | 40.92331 | 22.18592 | 37096 ft | 482 kts | 125° |
| 2026-05-04 18:55 | 40.86263 | 22.29177 | 37085 ft | 481 kts | 125° |
| 2026-05-04 18:56 | 40.82212 | 22.36213 | 37079 ft | 481 kts | 125° |
| 2026-05-04 18:56 | 40.78160 | 22.43236 | 37086 ft | 481 kts | 125° |
| 2026-05-04 18:57 | 40.74102 | 22.50260 | 37084 ft | 481 kts | 125° |
| 2026-05-04 18:57 | 40.70048 | 22.57275 | 37072 ft | 481 kts | 125° |
| 2026-05-04 18:58 | 40.65997 | 22.64274 | 37076 ft | 480 kts | 125° |
| 2026-05-04 18:58 | 40.61971 | 22.71210 | 37075 ft | 479 kts | 125° |
| 2026-05-04 18:59 | 40.57921 | 22.78175 | 37077 ft | 479 kts | 125° |
| 2026-05-04 18:59 | 40.53871 | 22.85124 | 37080 ft | 478 kts | 126° |
| 2026-05-04 19:00 | 40.49821 | 22.92059 | 37074 ft | 477 kts | 126° |
| 2026-05-04 19:00 | 40.45767 | 22.98973 | 37077 ft | 477 kts | 127° |
| 2026-05-04 19:01 | 40.41357 | 23.05413 | 37084 ft | 477 kts | 133° |
| 2026-05-04 19:01 | 40.36724 | 23.11653 | 37097 ft | 477 kts | 133° |
| 2026-05-04 19:02 | 40.32113 | 23.17886 | 37087 ft | 476 kts | 133° |
| 2026-05-04 19:02 | 40.27535 | 23.24148 | 37088 ft | 474 kts | 132° |
| 2026-05-04 19:03 | 40.22982 | 23.30402 | 37092 ft | 474 kts | 132° |
| 2026-05-04 19:03 | 40.18465 | 23.36598 | 37094 ft | 473 kts | 132° |
| 2026-05-04 19:04 | 40.13918 | 23.42819 | 37089 ft | 473 kts | 132° |
| 2026-05-04 19:04 | 40.09373 | 23.49022 | 37094 ft | 473 kts | 133° |
| 2026-05-04 19:05 | 40.04818 | 23.55225 | 37089 ft | 473 kts | 133° |
| 2026-05-04 19:05 | 40.00261 | 23.61417 | 37089 ft | 473 kts | 133° |
| 2026-05-04 19:06 | 39.95697 | 23.67607 | 37090 ft | 473 kts | 133° |
| 2026-05-04 19:06 | 39.91127 | 23.73792 | 37090 ft | 474 kts | 133° |
| 2026-05-04 19:07 | 39.86543 | 23.79984 | 37089 ft | 475 kts | 133° |
| 2026-05-04 19:07 | 39.81947 | 23.86179 | 37093 ft | 476 kts | 133° |
| 2026-05-04 19:08 | 39.77343 | 23.92371 | 37090 ft | 476 kts | 133° |
| 2026-05-04 19:08 | 39.72727 | 23.98567 | 37090 ft | 477 kts | 133° |
| 2026-05-04 19:09 | 39.68103 | 24.04762 | 37090 ft | 477 kts | 133° |
| 2026-05-04 19:09 | 39.63507 | 24.10906 | 37091 ft | 477 kts | 133° |
| 2026-05-04 19:10 | 39.58878 | 24.17083 | 37087 ft | 478 kts | 133° |
| 2026-05-04 19:10 | 39.54237 | 24.23263 | 37093 ft | 478 kts | 133° |
| 2026-05-04 19:11 | 39.49593 | 24.29434 | 37093 ft | 478 kts | 133° |
| 2026-05-04 19:11 | 39.44950 | 24.35591 | 37093 ft | 478 kts | 133° |
| 2026-05-04 19:12 | 39.37975 | 24.44820 | 37097 ft | 478 kts | 133° |
| 2026-05-04 19:13 | 39.33320 | 24.50965 | 37096 ft | 478 kts | 133° |
| 2026-05-04 19:13 | 39.28701 | 24.57146 | 37089 ft | 478 kts | 132° |
| 2026-05-04 19:14 | 39.24120 | 24.63305 | 37097 ft | 478 kts | 133° |
| 2026-05-04 19:14 | 39.19498 | 24.69496 | 37099 ft | 479 kts | 133° |
| 2026-05-04 19:15 | 39.14870 | 24.75675 | 37098 ft | 479 kts | 133° |
| 2026-05-04 19:15 | 39.10240 | 24.81840 | 37098 ft | 479 kts | 133° |
| 2026-05-04 19:16 | 39.05555 | 24.87952 | 37099 ft | 479 kts | 134° |
| 2026-05-04 19:16 | 39.00845 | 24.94031 | 37101 ft | 480 kts | 134° |
| 2026-05-04 19:17 | 38.96135 | 25.00109 | 37097 ft | 480 kts | 134° |
| 2026-05-04 19:17 | 38.91423 | 25.06193 | 37104 ft | 481 kts | 134° |
| 2026-05-04 19:18 | 38.86699 | 25.12283 | 37098 ft | 481 kts | 134° |
| 2026-05-04 19:18 | 38.81976 | 25.18359 | 37101 ft | 481 kts | 134° |
| 2026-05-04 19:19 | 38.77242 | 25.24438 | 37106 ft | 481 kts | 134° |
| 2026-05-04 19:19 | 38.72506 | 25.30506 | 37102 ft | 482 kts | 134° |
| 2026-05-04 19:20 | 38.67795 | 25.36531 | 37108 ft | 482 kts | 134° |
| 2026-05-04 19:20 | 38.63045 | 25.42593 | 37106 ft | 482 kts | 134° |
| 2026-05-04 19:21 | 38.58287 | 25.48655 | 37106 ft | 483 kts | 134° |